Time;durP1;ratioP1;P1;durP2;ratioP2;P2;SDS_P1;SDS_P2;PMS_P1;PMS_P2;Temp;Humidity;BMP_temperature;BMP_pressure;BME280_temperature;BME280_humidity;BME280_pressure;Samples;Min_cycle;Max_cycle;Signal;HPM_P1;HPM_P2
2023/01/14 00:01:53;;;;;;;;;;;8.80;99.90;;;;;;5078114;28;19908;-83
2023/01/14 00:04:19;;;;;;;;;;;8.80;99.90;;;;;;5076888;28;19952;-82
2023/01/14 00:06:44;;;;;;;;;;;8.80;99.90;;;;;;5076491;28;20368;-83
2023/01/14 00:09:11;;;;;;;;;;;8.80;99.90;;;;;;5075753;28;19928;-84
2023/01/14 00:11:46;;;;;;;;;;;8.80;99.90;;;;;;5078763;28;19934;-82
2023/01/14 00:14:13;;;;;;;;;;;8.70;99.90;;;;;;5078564;28;20032;-82
2023/01/14 00:16:39;;;;;;;;;;;8.70;99.90;;;;;;5078062;28;19935;-83
2023/01/14 00:19:04;;;;;;;;;;;8.70;99.90;;;;;;5068823;28;19908;-83
2023/01/14 00:21:30;;;;;;;;;;;8.70;99.90;;;;;;5074060;28;19970;-82
2023/01/14 00:23:55;;;;;;;;;;;8.60;99.90;;;;;;5064352;28;19909;-83
2023/01/14 00:26:21;;;;;;;;;;;8.60;99.90;;;;;;5075918;28;20384;-82
2023/01/14 00:28:47;;;;;;;;;;;8.60;99.90;;;;;;5075235;28;19939;-83
2023/01/14 00:31:14;;;;;;;;;;;8.70;99.90;;;;;;5072864;28;19999;-82
2023/01/14 00:33:40;;;;;;;;;;;8.60;99.90;;;;;;5065334;28;19931;-82
2023/01/14 00:36:07;;;;;;;;;;;8.60;99.90;;;;;;5075049;28;19912;-85
2023/01/14 00:38:33;;;;;;;;;;;8.60;99.90;;;;;;5067203;28;19954;-85
2023/01/14 00:41:06;;;;;;;;;;;8.60;99.90;;;;;;5078734;28;20328;-84
2023/01/14 00:43:32;;;;;;;;;;;8.60;99.90;;;;;;5077368;28;19909;-84
2023/01/14 00:45:58;;;;;;;;;;;8.60;99.90;;;;;;5076433;28;19912;-82
2023/01/14 00:48:23;;;;;;;;;;;8.60;99.90;;;;;;5079715;28;19912;-83
2023/01/14 00:50:49;;;;;;;;;;;8.60;99.90;;;;;;5072798;28;19912;-82
2023/01/14 00:53:14;;;;;;;;;;;8.60;99.90;;;;;;5077714;28;19913;-83
2023/01/14 00:55:40;;;;;;;;;;;8.50;99.90;;;;;;5077583;28;20323;-85
2023/01/14 00:58:05;;;;;;;;;;;8.60;99.90;;;;;;5074039;28;19908;-84
2023/01/14 01:00:30;;;;;;;;;;;8.60;99.90;;;;;;5076403;28;19916;-85
2023/01/14 01:02:57;;;;;;;;;;;8.60;99.90;;;;;;5077662;28;20012;-85
2023/01/14 01:05:23;;;;;;;;;;;8.60;99.90;;;;;;5097296;28;19955;-83
2023/01/14 01:07:48;;;;;;;;;;;8.60;99.90;;;;;;5081370;28;19920;-85
2023/01/14 01:10:14;;;;;;;;;;;8.60;99.90;;;;;;5083130;28;19916;-84
2023/01/14 01:12:39;;;;;;;;;;;8.60;99.90;;;;;;5080812;28;20218;-84
2023/01/14 01:15:05;;;;;;;;;;;8.60;99.90;;;;;;5081273;28;20012;-85
2023/01/14 01:17:30;;;;;;;;;;;8.60;99.90;;;;;;5080219;28;19916;-83
2023/01/14 01:19:56;;;;;;;;;;;8.60;99.90;;;;;;5081392;28;19921;-82
2023/01/14 01:22:21;;;;;;;;;;;8.60;99.90;;;;;;5081743;28;19924;-85
2023/01/14 01:24:47;;;;;;;;;;;8.60;99.90;;;;;;5077196;28;19909;-83
2023/01/14 01:27:12;;;;;;;;;;;8.70;99.90;;;;;;5074585;28;19942;-84
2023/01/14 01:29:38;;;;;;;;;;;8.70;99.90;;;;;;5080205;28;19920;-84
2023/01/14 01:32:03;;;;;;;;;;;8.70;99.90;;;;;;5089530;28;19912;-83
2023/01/14 01:34:29;;;;;;;;;;;8.70;99.90;;;;;;5078504;28;19912;-83
2023/01/14 01:36:54;;;;;;;;;;;8.70;99.90;;;;;;5079614;28;20022;-83
2023/01/14 01:39:20;;;;;;;;;;;8.80;99.90;;;;;;5082632;28;19909;-84
2023/01/14 01:41:45;;;;;;;;;;;8.80;99.90;;;;;;5079318;28;19972;-85
2023/01/14 01:44:14;;;;;;;;;;;8.80;99.90;;;;;;5074945;28;20325;-83
2023/01/14 01:46:40;;;;;;;;;;;8.80;99.90;;;;;;5076677;28;19913;-84
2023/01/14 01:49:08;;;;;;;;;;;8.80;99.90;;;;;;5080414;28;19920;-84
2023/01/14 01:51:41;;;;;;;;;;;8.70;99.90;;;;;;5073726;28;19908;-85
2023/01/14 01:54:06;;;;;;;;;;;8.70;99.90;;;;;;5079229;28;19931;-83
2023/01/14 01:56:34;;;;;;;;;;;8.80;99.90;;;;;;5093034;28;19925;-83
2023/01/14 01:59:01;;;;;;;;;;;8.70;99.90;;;;;;5082383;28;19931;-82
2023/01/14 02:01:26;;;;;;;;;;;8.70;99.90;;;;;;5077926;28;19921;-84
2023/01/14 02:03:52;;;;;;;;;;;8.70;99.90;;;;;;5080595;28;19915;-84
2023/01/14 02:06:18;;;;;;;;;;;8.70;99.90;;;;;;5080537;28;20405;-82
2023/01/14 02:08:47;;;;;;;;;;;8.70;99.90;;;;;;5080204;28;20033;-82
2023/01/14 02:11:12;;;;;;;;;;;8.70;99.90;;;;;;5071819;28;19909;-82
2023/01/14 02:13:56;;;;;;;;;;;8.70;99.90;;;;;;5079904;28;19916;-84
2023/01/14 02:16:22;;;;;;;;;;;8.70;99.90;;;;;;5076497;28;19916;-82
2023/01/14 02:18:47;;;;;;;;;;;8.70;99.90;;;;;;5078056;28;19908;-84
2023/01/14 02:21:18;;;;;;;;;;;8.70;99.90;;;;;;5079339;28;19921;-81
2023/01/14 02:23:43;;;;;;;;;;;8.60;99.90;;;;;;5079018;28;19908;-82
2023/01/14 02:26:11;;;;;;;;;;;8.60;99.90;;;;;;5073076;28;19913;-84
2023/01/14 02:28:37;;;;;;;;;;;8.50;99.90;;;;;;5081894;28;20010;-84
2023/01/14 02:31:05;;;;;;;;;;;8.50;99.90;;;;;;5072853;28;19967;-84
2023/01/14 02:33:43;;;;;;;;;;;8.50;99.90;;;;;;5079138;28;19968;-85
2023/01/14 02:36:14;;;;;;;;;;;8.50;99.90;;;;;;5080046;28;19940;-84
2023/01/14 02:38:39;;;;;;;;;;;8.50;99.90;;;;;;5079626;28;20427;-84
2023/01/14 02:41:14;;;;;;;;;;;8.50;99.90;;;;;;5072568;28;19917;-80
2023/01/14 02:46:32;;;;;;;;;;;8.40;99.90;;;;;;5080788;28;19920;-84
2023/01/14 02:48:59;;;;;;;;;;;8.40;99.90;;;;;;5070697;28;19919;-83
2023/01/14 02:51:25;;;;;;;;;;;8.40;99.90;;;;;;5081644;28;20019;-83
2023/01/14 02:53:50;;;;;;;;;;;8.30;99.90;;;;;;5079659;28;20361;-84
2023/01/14 02:56:16;;;;;;;;;;;8.30;99.90;;;;;;5072728;28;19954;-84
2023/01/14 02:58:42;;;;;;;;;;;8.40;99.90;;;;;;5078468;28;19909;-82
2023/01/14 03:01:26;;;;;;;;;;;8.30;99.90;;;;;;5096345;28;20328;-83
2023/01/14 03:04:09;;;;;;;;;;;8.40;99.90;;;;;;5084686;22;20528;-61
2023/01/14 03:07:01;;;;;;;;;;;8.40;99.90;;;;;;5068589;28;19917;-61
2023/01/14 03:09:29;;;;;;;;;;;8.30;99.90;;;;;;5039014;28;20363;-62
2023/01/14 03:11:57;;;;;;;;;;;8.10;99.90;;;;;;5070587;28;19920;-61
2023/01/14 03:14:30;;;;;;;;;;;8.00;99.90;;;;;;5066257;28;19908;-63
2023/01/14 03:16:59;;;;;;;;;;;7.90;99.90;;;;;;5071256;28;20305;-62
2023/01/14 03:19:48;;;;;;;;;;;7.80;99.90;;;;;;5060973;28;19913;-62
2023/01/14 03:22:14;;;;;;;;;;;7.80;99.90;;;;;;5055457;28;19997;-62
2023/01/14 03:24:43;;;;;;;;;;;7.80;99.90;;;;;;5059987;28;19958;-62
2023/01/14 03:27:11;;;;;;;;;;;7.70;99.90;;;;;;5062538;28;19932;-61
2023/01/14 03:29:42;;;;;;;;;;;7.70;99.90;;;;;;5061821;28;19919;-61
2023/01/14 03:32:09;;;;;;;;;;;7.70;99.90;;;;;;5066969;28;19936;-61
2023/01/14 03:34:44;;;;;;;;;;;7.60;99.90;;;;;;5062831;28;19920;-62
2023/01/14 03:37:12;;;;;;;;;;;7.50;99.90;;;;;;5064183;28;19912;-62
2023/01/14 03:39:40;;;;;;;;;;;7.50;99.90;;;;;;5063224;28;20394;-62
2023/01/14 03:42:18;;;;;;;;;;;7.40;99.90;;;;;;5061736;28;19952;-62
2023/01/14 03:44:54;;;;;;;;;;;7.40;99.90;;;;;;5069956;28;19994;-62
2023/01/14 03:47:21;;;;;;;;;;;7.30;99.90;;;;;;5071379;28;19920;-62
2023/01/14 03:49:47;;;;;;;;;;;7.30;99.90;;;;;;5069489;28;20288;-62
2023/01/14 03:52:20;;;;;;;;;;;7.20;99.90;;;;;;5070761;28;20388;-62
2023/01/14 03:54:51;;;;;;;;;;;7.10;99.90;;;;;;5068979;28;20372;-62
2023/01/14 03:57:19;;;;;;;;;;;7.10;99.90;;;;;;5068038;28;19920;-62
2023/01/14 03:59:48;;;;;;;;;;;7.00;99.90;;;;;;5071210;28;20006;-62
2023/01/14 04:02:13;;;;;;;;;;;7.00;99.90;;;;;;5067745;28;19967;-62
2023/01/14 04:04:41;;;;;;;;;;;7.00;99.90;;;;;;5070096;28;20010;-62
2023/01/14 04:07:07;;;;;;;;;;;7.00;99.90;;;;;;5070981;28;20281;-62
2023/01/14 04:09:32;;;;;;;;;;;6.90;99.90;;;;;;5067258;28;20367;-62
2023/01/14 04:11:58;;;;;;;;;;;7.00;99.90;;;;;;5066294;28;19923;-62
2023/01/14 04:17:07;;;;;;;;;;;6.90;99.90;;;;;;5063607;28;19965;-62
2023/01/14 04:19:33;;;;;;;;;;;7.00;99.90;;;;;;5059736;28;19913;-62
2023/01/14 04:21:58;;;;;;;;;;;7.00;99.90;;;;;;5068228;28;19912;-62
2023/01/14 04:24:24;;;;;;;;;;;7.00;99.90;;;;;;5064367;28;19917;-62
2023/01/14 04:26:49;;;;;;;;;;;6.80;99.90;;;;;;5065439;28;19917;-62
2023/01/14 04:29:14;;;;;;;;;;;6.90;99.90;;;;;;5061216;28;20436;-61
2023/01/14 04:31:40;;;;;;;;;;;6.90;99.90;;;;;;5065574;28;20332;-62
2023/01/14 04:34:05;;;;;;;;;;;6.80;99.90;;;;;;5066343;28;19916;-62
2023/01/14 04:36:31;;;;;;;;;;;6.80;99.90;;;;;;5068148;28;20302;-62
2023/01/14 04:38:56;;;;;;;;;;;6.80;99.90;;;;;;5067080;28;20394;-62
2023/01/14 04:44:06;;;;;;;;;;;6.80;99.90;;;;;;5070778;28;20439;-62
2023/01/14 04:46:32;;;;;;;;;;;6.80;99.90;;;;;;5070237;28;19912;-62
2023/01/14 04:48:57;;;;;;;;;;;6.80;99.90;;;;;;5070467;28;20409;-64
2023/01/14 04:51:22;;;;;;;;;;;6.80;99.90;;;;;;5066824;28;19969;-62
2023/01/14 04:53:48;;;;;;;;;;;6.80;99.90;;;;;;5070838;28;20002;-63
2023/01/14 04:56:13;;;;;;;;;;;6.80;99.90;;;;;;5071214;28;19912;-61
2023/01/14 04:58:39;;;;;;;;;;;6.70;99.90;;;;;;5065790;28;20348;-62
2023/01/14 05:01:05;;;;;;;;;;;6.70;99.90;;;;;;5066077;28;20497;-63
2023/01/14 05:03:30;;;;;;;;;;;6.80;99.90;;;;;;5068768;28;19912;-62
2023/01/14 05:05:55;;;;;;;;;;;6.80;99.90;;;;;;5071611;28;19928;-62
2023/01/14 05:08:21;;;;;;;;;;;6.80;99.90;;;;;;5072086;28;19991;-62
2023/01/14 05:10:48;;;;;;;;;;;6.80;99.90;;;;;;5072506;28;19912;-62
2023/01/14 05:13:14;;;;;;;;;;;6.80;99.90;;;;;;5073562;28;19908;-61
2023/01/14 05:15:41;;;;;;;;;;;6.80;99.90;;;;;;5069366;28;20416;-62
2023/01/14 05:18:07;;;;;;;;;;;6.90;99.90;;;;;;5068110;28;19943;-62
2023/01/14 05:20:32;;;;;;;;;;;6.90;99.90;;;;;;5072194;28;20014;-62
2023/01/14 05:23:00;;;;;;;;;;;6.90;99.90;;;;;;5070328;28;20003;-62
2023/01/14 05:25:26;;;;;;;;;;;6.90;99.90;;;;;;5069188;28;20441;-63
2023/01/14 05:27:51;;;;;;;;;;;6.90;99.90;;;;;;5068600;28;19922;-62
2023/01/14 05:30:17;;;;;;;;;;;6.90;99.90;;;;;;5070619;28;20378;-62
2023/01/14 05:32:42;;;;;;;;;;;6.80;99.90;;;;;;5069713;28;20374;-62
2023/01/14 05:35:08;;;;;;;;;;;6.90;99.90;;;;;;5062735;28;20283;-62
2023/01/14 05:37:33;;;;;;;;;;;6.90;99.90;;;;;;5069405;28;20011;-62
2023/01/14 05:39:59;;;;;;;;;;;6.90;99.90;;;;;;5064873;28;19935;-62
2023/01/14 05:47:54;;;;;;;;;;;6.90;99.90;;;;;;5070214;28;20338;-62
2023/01/14 05:50:19;;;;;;;;;;;6.90;99.90;;;;;;5072846;28;20417;-62
2023/01/14 05:52:44;;;;;;;;;;;6.90;99.90;;;;;;5070557;28;19958;-62
2023/01/14 05:55:10;;;;;;;;;;;6.90;99.90;;;;;;5068256;28;20405;-62
2023/01/14 05:57:35;;;;;;;;;;;6.90;99.90;;;;;;5068590;28;20322;-62
2023/01/14 06:00:01;;;;;;;;;;;6.90;99.90;;;;;;5068609;28;20037;-63
2023/01/14 06:07:58;;;;;;;;;;;7.10;99.90;;;;;;5068017;28;19969;-63
2023/01/14 06:10:24;;;;;;;;;;;7.10;99.90;;;;;;5064406;28;19913;-63
2023/01/14 06:13:00;;;;;;;;;;;7.20;99.90;;;;;;5060852;28;19912;-62
2023/01/14 06:15:29;;;;;;;;;;;7.20;99.90;;;;;;5066791;28;19912;-63
2023/01/14 06:17:58;;;;;;;;;;;7.20;99.90;;;;;;5071892;28;19951;-60
2023/01/14 06:20:24;;;;;;;;;;;7.20;99.90;;;;;;5069730;28;19917;-61
2023/01/14 06:22:53;;;;;;;;;;;7.30;99.90;;;;;;5072226;28;20011;-62
2023/01/14 06:25:18;;;;;;;;;;;7.30;99.90;;;;;;5064892;28;19915;-62
2023/01/14 06:27:44;;;;;;;;;;;7.40;99.90;;;;;;5072175;28;20290;-62
2023/01/14 06:30:09;;;;;;;;;;;7.50;99.90;;;;;;5072533;28;20282;-62
2023/01/14 06:32:35;;;;;;;;;;;7.50;99.90;;;;;;5072639;28;19908;-62
2023/01/14 06:35:00;;;;;;;;;;;7.60;99.90;;;;;;5071527;28;19909;-62
2023/01/14 06:37:26;;;;;;;;;;;7.60;99.90;;;;;;5070781;28;19969;-62
2023/01/14 06:39:51;;;;;;;;;;;7.60;99.90;;;;;;5072578;28;20394;-62
2023/01/14 06:42:17;;;;;;;;;;;7.60;99.90;;;;;;5070723;28;20381;-62
2023/01/14 06:44:42;;;;;;;;;;;7.70;99.90;;;;;;5071596;28;19908;-64
2023/01/14 06:47:08;;;;;;;;;;;7.80;99.90;;;;;;5069021;28;19912;-64
2023/01/14 06:49:33;;;;;;;;;;;7.80;99.90;;;;;;5068232;28;20343;-64
2023/01/14 06:51:58;;;;;;;;;;;7.80;99.90;;;;;;5071715;28;20007;-64
2023/01/14 06:54:24;;;;;;;;;;;7.80;99.90;;;;;;5071638;28;19909;-60
2023/01/14 06:56:49;;;;;;;;;;;7.80;99.90;;;;;;5067509;28;19912;-60
2023/01/14 06:59:15;;;;;;;;;;;7.80;99.90;;;;;;5070212;28;20427;-63
2023/01/14 07:01:40;;;;;;;;;;;7.80;99.90;;;;;;5072130;28;19935;-61
2023/01/14 07:04:06;;;;;;;;;;;7.80;99.90;;;;;;5068155;28;19960;-62
2023/01/14 07:06:31;;;;;;;;;;;7.80;99.90;;;;;;5060463;28;19990;-62
2023/01/14 07:08:57;;;;;;;;;;;7.70;99.90;;;;;;5069262;28;19968;-62
2023/01/14 07:11:22;;;;;;;;;;;7.70;99.90;;;;;;5069759;28;19977;-61
2023/01/14 07:13:47;;;;;;;;;;;7.80;99.90;;;;;;5067458;28;19912;-61
2023/01/14 07:16:13;;;;;;;;;;;7.80;99.90;;;;;;5064788;28;19920;-61
2023/01/14 07:18:38;;;;;;;;;;;7.70;99.90;;;;;;5071616;28;19930;-62
2023/01/14 07:21:04;;;;;;;;;;;7.70;99.90;;;;;;5071966;28;19920;-61
2023/01/14 07:23:29;;;;;;;;;;;7.70;99.90;;;;;;5071124;28;19909;-62
2023/01/14 07:25:58;;;;;;;;;;;7.70;99.90;;;;;;5068758;28;19923;-63
2023/01/14 07:28:24;;;;;;;;;;;7.70;99.90;;;;;;5067293;28;20007;-61
2023/01/14 07:30:49;;;;;;;;;;;7.70;99.90;;;;;;5066463;28;20419;-61
2023/01/14 07:33:15;;;;;;;;;;;7.60;99.90;;;;;;5062054;28;19913;-61
2023/01/14 07:35:40;;;;;;;;;;;7.60;99.90;;;;;;5066931;28;19999;-61
2023/01/14 07:38:06;;;;;;;;;;;7.60;99.90;;;;;;5064083;28;19920;-61
2023/01/14 07:40:31;;;;;;;;;;;7.60;99.90;;;;;;5066433;28;20375;-61
2023/01/14 07:42:57;;;;;;;;;;;7.50;99.90;;;;;;5063434;28;19964;-60
2023/01/14 07:45:23;;;;;;;;;;;7.50;99.90;;;;;;5064320;28;20057;-61
2023/01/14 07:47:49;;;;;;;;;;;7.50;99.90;;;;;;5066439;28;20011;-62
2023/01/14 07:50:15;;;;;;;;;;;7.40;99.90;;;;;;5068252;28;20423;-62
2023/01/14 07:52:40;;;;;;;;;;;7.40;99.90;;;;;;5068776;28;19988;-63
2023/01/14 07:55:05;;;;;;;;;;;7.40;99.90;;;;;;5068893;28;19935;-61
2023/01/14 07:57:31;;;;;;;;;;;7.40;99.90;;;;;;5064373;28;19908;-61
2023/01/14 07:59:56;;;;;;;;;;;7.40;99.90;;;;;;5058159;28;19960;-62
2023/01/14 08:02:22;;;;;;;;;;;7.40;99.90;;;;;;5063678;28;19919;-62
2023/01/14 08:04:47;;;;;;;;;;;7.40;99.90;;;;;;5065153;28;19936;-61
2023/01/14 08:07:13;;;;;;;;;;;7.40;99.90;;;;;;5065970;28;19912;-61
2023/01/14 08:09:38;;;;;;;;;;;7.50;99.90;;;;;;5066455;28;19919;-61
2023/01/14 08:12:04;;;;;;;;;;;7.50;99.90;;;;;;5068276;28;19935;-62
2023/01/14 08:14:29;;;;;;;;;;;7.50;99.90;;;;;;5071967;28;19912;-61
2023/01/14 08:16:55;;;;;;;;;;;7.60;99.90;;;;;;5064671;28;19920;-61
2023/01/14 08:19:20;;;;;;;;;;;7.60;99.90;;;;;;5071811;28;19965;-60
2023/01/14 08:21:46;;;;;;;;;;;7.70;99.90;;;;;;5076520;28;19921;-61
2023/01/14 08:24:11;;;;;;;;;;;7.70;99.90;;;;;;5068946;28;20370;-61
2023/01/14 08:26:37;;;;;;;;;;;7.70;99.90;;;;;;5067791;28;20378;-61
2023/01/14 08:29:03;;;;;;;;;;;7.80;99.90;;;;;;5069029;28;20432;-61
2023/01/14 08:31:28;;;;;;;;;;;7.80;99.90;;;;;;5068787;28;19912;-61
2023/01/14 08:33:55;;;;;;;;;;;7.80;99.90;;;;;;5072376;28;19956;-61
2023/01/14 08:36:20;;;;;;;;;;;7.90;99.90;;;;;;5072474;28;20243;-62
2023/01/14 08:38:50;;;;;;;;;;;7.90;99.90;;;;;;5070448;28;19917;-61
2023/01/14 08:41:16;;;;;;;;;;;8.00;99.90;;;;;;5072074;28;19923;-61
2023/01/14 08:43:42;;;;;;;;;;;8.00;99.90;;;;;;5067342;28;19912;-61
2023/01/14 08:46:08;;;;;;;;;;;8.00;99.90;;;;;;5062487;28;19919;-61
2023/01/14 08:48:34;;;;;;;;;;;8.10;99.90;;;;;;5066386;28;19912;-57
2023/01/14 08:51:01;;;;;;;;;;;8.20;99.90;;;;;;5067847;28;19974;-57
2023/01/14 08:53:27;;;;;;;;;;;8.10;99.90;;;;;;5072442;28;19916;-57
2023/01/14 08:55:55;;;;;;;;;;;8.10;99.90;;;;;;5067889;28;20402;-55
2023/01/14 08:58:20;;;;;;;;;;;8.20;99.90;;;;;;5065696;28;19928;-58
2023/01/14 09:00:46;;;;;;;;;;;8.20;99.90;;;;;;5065999;28;20137;-58
2023/01/14 09:03:11;;;;;;;;;;;8.30;99.90;;;;;;5070279;28;19912;-57
2023/01/14 09:05:37;;;;;;;;;;;8.30;99.90;;;;;;5073736;28;19923;-57
2023/01/14 09:19:01;;;;;;;;;;;8.50;99.90;;;;;;5066751;28;20393;-58
2023/01/14 09:21:26;;;;;;;;;;;8.50;99.90;;;;;;5067919;28;19917;-58
2023/01/14 09:23:52;;;;;;;;;;;8.50;99.90;;;;;;5059085;28;20051;-57
2023/01/14 09:26:20;;;;;;;;;;;8.60;99.90;;;;;;5070666;28;19917;-57
2023/01/14 09:28:45;;;;;;;;;;;8.60;99.90;;;;;;5064434;28;19996;-57
2023/01/14 09:31:11;;;;;;;;;;;8.60;99.90;;;;;;5068930;28;19947;-58
2023/01/14 09:33:36;;;;;;;;;;;8.60;99.90;;;;;;5068311;28;19913;-57
2023/01/14 09:36:02;;;;;;;;;;;8.60;99.90;;;;;;5069686;28;20456;-57
2023/01/14 09:38:28;;;;;;;;;;;8.70;99.90;;;;;;5063715;28;19920;-58
2023/01/14 09:40:54;;;;;;;;;;;8.70;99.90;;;;;;5068835;28;19969;-58
2023/01/14 09:43:20;;;;;;;;;;;8.70;99.90;;;;;;5061687;28;19916;-57
2023/01/14 09:45:47;;;;;;;;;;;8.80;99.90;;;;;;5063348;28;19913;-57
2023/01/14 09:48:14;;;;;;;;;;;8.80;99.90;;;;;;5065441;28;19912;-57
2023/01/14 09:51:01;;;;;;;;;;;8.80;99.90;;;;;;5068461;28;20355;-57
2023/01/14 09:53:45;;;;;;;;;;;8.80;99.90;;;;;;5063592;28;19916;-58
2023/01/14 09:56:23;;;;;;;;;;;8.90;99.90;;;;;;5064029;28;19920;-56
2023/01/14 09:58:53;;;;;;;;;;;8.90;99.90;;;;;;5063584;28;20405;-58
2023/01/14 10:01:26;;;;;;;;;;;8.90;99.90;;;;;;5062550;28;19923;-56
2023/01/14 10:04:01;;;;;;;;;;;8.90;99.90;;;;;;5064018;28;19916;-58
2023/01/14 10:06:27;;;;;;;;;;;8.90;99.90;;;;;;5066225;28;20469;-56
2023/01/14 10:09:05;;;;;;;;;;;9.00;99.90;;;;;;5063395;28;19957;-56
2023/01/14 10:11:32;;;;;;;;;;;9.00;99.90;;;;;;5066691;28;19912;-53
2023/01/14 10:14:10;;;;;;;;;;;9.00;99.90;;;;;;5064730;28;20282;-56
2023/01/14 10:16:43;;;;;;;;;;;9.00;99.90;;;;;;5071704;28;20398;-57
2023/01/14 10:19:21;;;;;;;;;;;9.10;99.90;;;;;;5070289;28;19909;-57
2023/01/14 10:21:56;;;;;;;;;;;9.10;99.90;;;;;;5065568;28;19933;-57
2023/01/14 10:24:21;;;;;;;;;;;9.10;99.90;;;;;;5064501;28;19999;-56
2023/01/14 10:26:48;;;;;;;;;;;9.20;99.90;;;;;;5063459;28;20003;-57
2023/01/14 10:29:17;;;;;;;;;;;9.20;99.90;;;;;;5064657;28;19912;-56
2023/01/14 10:31:50;;;;;;;;;;;9.20;99.90;;;;;;5063740;28;20381;-58
2023/01/14 10:34:21;;;;;;;;;;;9.20;99.90;;;;;;5064194;28;19916;-57
2023/01/14 10:36:48;;;;;;;;;;;9.30;99.90;;;;;;5063574;28;20314;-57
2023/01/14 10:39:13;;;;;;;;;;;9.30;99.90;;;;;;5067734;28;19913;-58
2023/01/14 10:41:48;;;;;;;;;;;9.30;99.90;;;;;;5065906;28;19920;-58
2023/01/14 10:44:19;;;;;;;;;;;9.30;99.90;;;;;;5062339;28;19919;-57
2023/01/14 10:46:45;;;;;;;;;;;9.30;99.90;;;;;;5066028;28;20011;-57
2023/01/14 10:49:14;;;;;;;;;;;9.30;99.90;;;;;;5065491;28;20382;-58
2023/01/14 10:51:47;;;;;;;;;;;9.30;99.90;;;;;;5067171;28;19913;-58
2023/01/14 10:54:24;;;;;;;;;;;9.30;99.90;;;;;;5068570;28;20301;-57
2023/01/14 10:56:56;;;;;;;;;;;9.20;99.90;;;;;;5065566;28;20408;-56
2023/01/14 10:59:28;;;;;;;;;;;9.20;99.90;;;;;;5064256;28;20003;-55
2023/01/14 11:01:54;;;;;;;;;;;9.20;99.90;;;;;;5067015;28;20658;-56
2023/01/14 11:04:22;;;;;;;;;;;9.20;99.90;;;;;;5064577;28;20019;-57
2023/01/14 11:06:47;;;;;;;;;;;9.20;99.90;;;;;;5065732;28;20374;-56
2023/01/14 11:09:22;;;;;;;;;;;9.20;99.90;;;;;;5065188;28;19919;-58
2023/01/14 11:11:48;;;;;;;;;;;9.20;99.90;;;;;;5065710;28;20555;-57
2023/01/14 11:14:18;;;;;;;;;;;9.20;99.90;;;;;;5062737;28;19909;-58
2023/01/14 11:16:44;;;;;;;;;;;9.20;99.90;;;;;;5064627;28;19938;-58
2023/01/14 11:19:15;;;;;;;;;;;9.20;99.90;;;;;;5069550;28;20425;-57
2023/01/14 11:21:42;;;;;;;;;;;9.20;99.90;;;;;;5067031;28;19916;-57
2023/01/14 11:24:29;;;;;;;;;;;9.30;99.90;;;;;;5064251;28;19912;-58
2023/01/14 11:27:13;;;;;;;;;;;9.20;99.90;;;;;;5057698;28;19983;-57
2023/01/14 11:29:43;;;;;;;;;;;9.20;99.90;;;;;;5061766;28;20286;-59
2023/01/14 11:32:12;;;;;;;;;;;9.20;99.90;;;;;;5064442;28;19919;-57
2023/01/14 11:34:49;;;;;;;;;;;9.10;99.90;;;;;;5060122;28;19913;-58
2023/01/14 11:37:17;;;;;;;;;;;9.10;99.90;;;;;;5067489;28;19923;-57
2023/01/14 11:40:01;;;;;;;;;;;9.10;99.90;;;;;;5065627;28;20296;-56
2023/01/14 11:42:26;;;;;;;;;;;9.10;99.90;;;;;;5067924;28;19999;-58
2023/01/14 11:44:56;;;;;;;;;;;9.10;99.90;;;;;;5063337;28;20015;-59
2023/01/14 11:47:22;;;;;;;;;;;9.20;99.90;;;;;;5058262;28;19955;-58
2023/01/14 11:49:49;;;;;;;;;;;9.20;99.90;;;;;;5062547;28;19955;-55
2023/01/14 11:52:19;;;;;;;;;;;9.20;99.90;;;;;;5067634;28;19912;-58
2023/01/14 11:54:47;;;;;;;;;;;9.30;99.90;;;;;;5063306;28;19918;-58
2023/01/14 11:57:15;;;;;;;;;;;9.30;99.90;;;;;;5063743;28;19931;-57
2023/01/14 11:59:41;;;;;;;;;;;9.20;99.90;;;;;;5067566;28;20024;-57
2023/01/14 12:02:09;;;;;;;;;;;9.30;99.90;;;;;;5064529;28;19917;-56
2023/01/14 12:04:51;;;;;;;;;;;9.20;99.90;;;;;;5068616;28;19924;-57
2023/01/14 12:07:21;;;;;;;;;;;9.20;99.90;;;;;;5069884;28;20007;-58
2023/01/14 12:10:16;;;;;;;;;;;9.20;99.90;;;;;;5066696;28;19928;-56
2023/01/14 12:18:41;;;;;;;;;;;9.20;99.90;;;;;;5064917;28;19950;-58
2023/01/14 12:21:06;;;;;;;;;;;9.20;99.90;;;;;;5070587;28;19920;-58
2023/01/14 12:23:36;;;;;;;;;;;9.30;99.90;;;;;;5063320;28;19924;-57
2023/01/14 12:26:04;;;;;;;;;;;9.30;99.90;;;;;;5069248;28;19917;-57
2023/01/14 12:28:32;;;;;;;;;;;9.30;99.90;;;;;;5070487;28;19998;-57
2023/01/14 12:31:09;;;;;;;;;;;9.30;99.90;;;;;;5067497;28;20384;-56
2023/01/14 12:33:41;;;;;;;;;;;9.30;99.90;;;;;;5068681;28;19920;-56
2023/01/14 12:36:14;;;;;;;;;;;9.30;99.90;;;;;;5064463;28;19916;-56
2023/01/14 12:47:05;;;;;;;;;;;9.30;99.90;;;;;;5064582;28;19920;-58
2023/01/14 12:49:31;;;;;;;;;;;9.30;99.90;;;;;;5068141;28;20282;-57
2023/01/14 12:51:57;;;;;;;;;;;9.30;99.90;;;;;;5068581;28;19920;-56
2023/01/14 12:54:29;;;;;;;;;;;9.30;99.90;;;;;;5067261;28;19913;-57
2023/01/14 12:56:55;;;;;;;;;;;9.40;99.90;;;;;;5072065;28;19913;-56
2023/01/14 12:59:30;;;;;;;;;;;9.40;99.90;;;;;;5074031;28;19913;-57
2023/01/14 13:02:14;;;;;;;;;;;9.50;99.90;;;;;;5071576;28;20449;-57
2023/01/14 13:04:45;;;;;;;;;;;9.50;99.90;;;;;;5064203;28;20290;-57
2023/01/14 13:07:25;;;;;;;;;;;9.60;99.90;;;;;;5071634;28;19913;-56
2023/01/14 13:09:52;;;;;;;;;;;9.60;99.90;;;;;;5066243;28;19923;-58
2023/01/14 13:12:24;;;;;;;;;;;9.60;99.90;;;;;;5071309;28;19916;-59
2023/01/14 13:15:00;;;;;;;;;;;9.50;99.90;;;;;;5070430;28;19944;-56
2023/01/14 13:17:31;;;;;;;;;;;9.50;99.90;;;;;;5068474;28;19913;-58
2023/01/14 13:19:57;;;;;;;;;;;9.60;99.90;;;;;;5070637;28;19916;-57
2023/01/14 13:22:40;;;;;;;;;;;9.60;99.90;;;;;;5071795;28;19938;-58
2023/01/14 13:25:05;;;;;;;;;;;9.70;99.90;;;;;;5071889;28;19912;-57
2023/01/14 13:27:31;;;;;;;;;;;9.70;99.90;;;;;;5063343;28;19982;-57
2023/01/14 13:30:15;;;;;;;;;;;9.70;99.90;;;;;;5069556;28;20336;-55
2023/01/14 13:32:49;;;;;;;;;;;9.80;99.90;;;;;;5064292;28;19974;-54
2023/01/14 13:35:19;;;;;;;;;;;9.90;99.90;;;;;;5071087;28;20404;-55
2023/01/14 13:37:45;;;;;;;;;;;9.90;99.90;;;;;;5069006;28;19966;-56
2023/01/14 13:40:35;;;;;;;;;;;10.00;99.90;;;;;;5068503;28;19925;-53
2023/01/14 13:43:01;;;;;;;;;;;10.00;99.90;;;;;;5060127;28;19926;-54
2023/01/14 13:45:28;;;;;;;;;;;10.10;99.90;;;;;;5064805;28;20014;-54
2023/01/14 13:47:55;;;;;;;;;;;10.10;99.90;;;;;;5064216;28;19920;-54
2023/01/14 13:50:28;;;;;;;;;;;10.20;99.90;;;;;;5064249;28;19943;-55
2023/01/14 13:52:55;;;;;;;;;;;10.20;99.90;;;;;;5065369;28;19924;-58
2023/01/14 13:55:26;;;;;;;;;;;10.20;99.90;;;;;;5068591;28;20263;-58
2023/01/14 13:57:54;;;;;;;;;;;10.20;99.90;;;;;;5064081;28;20027;-58
2023/01/14 14:00:19;;;;;;;;;;;10.20;99.90;;;;;;5067693;28;19923;-58
2023/01/14 14:02:52;;;;;;;;;;;10.20;99.90;;;;;;5064690;28;20301;-56
2023/01/14 14:05:25;;;;;;;;;;;10.20;99.90;;;;;;5067950;28;19952;-59
2023/01/14 14:08:09;;;;;;;;;;;10.20;99.90;;;;;;5064306;28;19923;-58
2023/01/14 14:10:37;;;;;;;;;;;10.20;99.90;;;;;;5062260;28;20039;-55
2023/01/14 14:15:53;;;;;;;;;;;10.30;99.90;;;;;;5064363;28;19924;-56
2023/01/14 14:18:39;;;;;;;;;;;10.30;99.90;;;;;;5061287;28;19913;-58
2023/01/14 14:21:08;;;;;;;;;;;10.30;99.90;;;;;;5062500;28;19920;-58
2023/01/14 14:23:35;;;;;;;;;;;10.30;99.90;;;;;;5064500;28;20019;-56
2023/01/14 14:26:10;;;;;;;;;;;10.30;99.90;;;;;;5067934;28;19931;-57
2023/01/14 14:28:38;;;;;;;;;;;10.20;99.90;;;;;;5066480;28;19920;-56
2023/01/14 14:31:10;;;;;;;;;;;10.20;99.90;;;;;;5061900;28;20381;-57
2023/01/14 14:33:38;;;;;;;;;;;10.30;99.90;;;;;;5063851;28;19964;-57
2023/01/14 14:36:15;;;;;;;;;;;10.30;99.90;;;;;;5062436;28;20023;-53
2023/01/14 14:38:44;;;;;;;;;;;10.30;99.90;;;;;;5055363;28;19913;-57
2023/01/14 14:41:15;;;;;;;;;;;10.40;99.90;;;;;;5065528;28;19978;-57
2023/01/14 14:43:43;;;;;;;;;;;10.40;99.90;;;;;;5060797;28;19922;-60
2023/01/14 14:46:10;;;;;;;;;;;10.30;99.90;;;;;;5064385;28;19923;-57
2023/01/14 14:48:40;;;;;;;;;;;10.30;99.90;;;;;;5055971;28;19963;-58
2023/01/14 14:51:15;;;;;;;;;;;10.30;99.90;;;;;;5067221;28;19916;-60
2023/01/14 14:53:44;;;;;;;;;;;10.40;99.90;;;;;;5066262;28;19912;-58
2023/01/14 14:56:12;;;;;;;;;;;10.50;99.90;;;;;;5064345;28;19916;-57
2023/01/14 14:58:37;;;;;;;;;;;10.40;99.90;;;;;;5061178;28;19916;-57
2023/01/14 15:01:04;;;;;;;;;;;10.50;99.90;;;;;;5063903;28;19920;-56
2023/01/14 15:03:31;;;;;;;;;;;10.50;99.90;;;;;;5062660;28;19912;-57
2023/01/14 15:05:58;;;;;;;;;;;10.50;99.90;;;;;;5068534;28;19921;-56
2023/01/14 15:08:28;;;;;;;;;;;10.50;99.90;;;;;;5065974;28;19952;-55
2023/01/14 15:10:53;;;;;;;;;;;10.60;99.90;;;;;;5065957;28;19983;-55
2023/01/14 15:13:28;;;;;;;;;;;10.70;99.90;;;;;;5063226;28;20366;-57
2023/01/14 15:16:08;;;;;;;;;;;10.60;99.90;;;;;;5066561;28;19975;-54
2023/01/14 15:18:49;;;;;;;;;;;10.70;99.90;;;;;;5066614;28;19920;-58
2023/01/14 15:21:19;;;;;;;;;;;10.70;99.90;;;;;;5066847;28;20367;-58
2023/01/14 15:23:48;;;;;;;;;;;10.80;99.90;;;;;;5068938;28;19913;-57